createdAt,value
2023-05-15T00:01:35.901Z,100517.41
2023-05-15T00:04:39.025Z,100520.03
2023-05-15T00:07:41.933Z,100518.28
2023-05-15T00:10:57.369Z,100510.13
2023-05-15T00:14:03.701Z,100513.78
2023-05-15T00:17:06.633Z,100508.56
2023-05-15T00:20:10.099Z,100507.59
2023-05-15T00:23:12.907Z,100501.28
2023-05-15T00:26:16.048Z,100496.88
2023-05-15T00:29:18.864Z,100490.81
2023-05-15T00:32:21.458Z,100494.41
2023-05-15T00:35:24.144Z,100483.72
2023-05-15T00:38:26.817Z,100471.19
2023-05-15T00:41:32.682Z,100474.81
2023-05-15T00:44:36.085Z,100458.75
2023-05-15T00:47:40.929Z,100465.97
2023-05-15T00:50:43.641Z,100455.19
2023-05-15T00:53:46.396Z,100456.94
2023-05-15T00:56:50.049Z,100448.03
2023-05-15T00:59:53.249Z,100443.56
2023-05-15T01:02:55.704Z,100449.09
2023-05-15T01:05:58.489Z,100459.03
2023-05-15T01:09:07.139Z,100461.03
2023-05-15T01:12:10.801Z,100466.22
2023-05-15T01:15:13.360Z,100459.91
2023-05-15T01:18:16.521Z,100447.47
2023-05-15T01:21:36.461Z,100437.63
2023-05-15T01:24:59.757Z,100438.56
2023-05-15T01:28:10.092Z,100443.03
2023-05-15T01:31:19.526Z,100443.03
2023-05-15T01:34:24.326Z,100429.72
2023-05-15T01:37:29.648Z,100423.63
2023-05-15T01:40:33.584Z,100410.44
2023-05-15T01:43:40.424Z,100404.28
2023-05-15T01:46:46.829Z,100401.72
2023-05-15T01:49:51.496Z,100404.56
2023-05-15T01:52:59.101Z,100396.59
2023-05-15T01:56:04.327Z,100400.97
2023-05-15T01:59:07.633Z,100400.09
2023-05-15T02:02:11.409Z,100401.09
2023-05-15T02:05:14.551Z,100386.09
2023-05-15T02:08:17.357Z,100382.63
2023-05-15T02:11:20.176Z,100384.56
2023-05-15T02:14:25.349Z,100392.47
2023-05-15T02:17:28.866Z,100386.19
2023-05-15T02:20:31.525Z,100390.56
2023-05-15T02:23:34.172Z,100379.81
2023-05-15T02:26:46.677Z,100377.13
2023-05-15T02:30:12.504Z,100378.06
2023-05-15T02:33:31.400Z,100365.84
2023-05-15T02:36:36.649Z,100370.50
2023-05-15T02:39:41.189Z,100361.66
2023-05-15T02:42:44.802Z,100358.75
2023-05-15T02:45:48.155Z,100355.50
2023-05-15T02:48:51.104Z,100346.66
2023-05-15T02:51:55.476Z,100342.13
2023-05-15T02:54:58.080Z,100335.94
2023-05-15T02:58:00.916Z,100329.63
2023-05-15T03:01:04.812Z,100323.50
2023-05-15T03:04:07.719Z,100321.72
2023-05-15T03:07:10.099Z,100318.88
2023-05-15T03:10:12.773Z,100319.81
2023-05-15T03:13:15.216Z,100314.28
2023-05-15T03:16:17.878Z,100309.00
2023-05-15T03:19:20.385Z,100300.03
2023-05-15T03:22:23.065Z,100291.03
2023-05-15T03:25:26.124Z,100292.88
2023-05-15T03:28:29.278Z,100289.28
2023-05-15T03:31:32.787Z,100279.41
2023-05-15T03:34:35.490Z,100259.75
2023-05-15T03:37:37.920Z,100263.34
2023-05-15T03:40:41.063Z,100274.91
2023-05-15T03:43:43.363Z,100271.19
2023-05-15T03:46:45.980Z,100262.22
2023-05-15T03:49:48.287Z,100263.88
2023-05-15T03:52:51.027Z,100263.88
2023-05-15T03:55:54.255Z,100262.16
2023-05-15T03:58:57.031Z,100275.41
2023-05-15T04:02:04.938Z,100257.47
2023-05-15T04:05:09.101Z,100241.31
2023-05-15T04:08:12.684Z,100244.78
2023-05-15T04:11:15.903Z,100243.03
2023-05-15T04:14:18.700Z,100238.44
2023-05-15T04:17:21.446Z,100238.44
2023-05-15T04:20:24.861Z,100229.56
2023-05-15T04:23:27.530Z,100225.38
2023-05-15T04:26:30.119Z,100227.00
2023-05-15T04:29:33.067Z,100220.56
2023-05-15T04:32:36.261Z,100221.44
2023-05-15T04:35:39.298Z,100208.94
2023-05-15T04:38:41.573Z,100209.00
2023-05-15T04:41:44.336Z,100213.44
2023-05-15T04:44:47.954Z,100204.59
2023-05-15T04:47:51.265Z,100196.56
2023-05-15T04:50:53.853Z,100189.41
2023-05-15T04:53:56.506Z,100186.66
2023-05-15T04:56:58.766Z,100185.66
2023-05-15T05:00:01.876Z,100194.50
2023-05-15T05:03:05.112Z,100176.75
2023-05-15T05:06:08.101Z,100171.31
2023-05-15T05:09:10.949Z,100181.97
2023-05-15T05:12:13.706Z,100194.59
2023-05-15T05:15:16.202Z,100186.44
2023-05-15T05:18:18.961Z,100180.16
2023-05-15T05:21:21.358Z,100170.38
2023-05-15T05:24:24.307Z,100170.28
2023-05-15T05:27:27.104Z,100150.59
2023-05-15T05:30:29.829Z,100158.66
2023-05-15T05:33:32.210Z,100153.28
2023-05-15T05:36:37.118Z,100146.19
2023-05-15T05:39:39.419Z,100146.06
2023-05-15T05:42:42.394Z,100140.69
2023-05-15T05:45:44.833Z,100137.97
2023-05-15T05:48:47.530Z,100123.66
2023-05-15T05:51:49.864Z,100128.22
2023-05-15T05:54:52.608Z,100125.44
2023-05-15T05:57:55.085Z,100120.16
2023-05-15T06:00:57.953Z,100131.56
2023-05-15T06:04:00.430Z,100131.28
2023-05-15T06:07:03.571Z,100136.44
2023-05-15T06:10:07.786Z,100130.75
2023-05-15T06:13:10.446Z,100141.47
2023-05-15T06:16:12.802Z,100137.75
2023-05-15T06:19:15.957Z,100146.41
2023-05-15T06:22:18.357Z,100142.75
2023-05-15T06:25:21.311Z,100138.16
2023-05-15T06:28:23.698Z,100144.41
2023-05-15T06:31:26.741Z,100153.59
2023-05-15T06:34:29.209Z,100149.31
2023-05-15T06:37:34.108Z,100155.63
2023-05-15T06:40:36.577Z,100164.53
2023-05-15T06:43:39.335Z,100169.16
2023-05-15T06:46:41.832Z,100166.50
2023-05-15T06:49:44.690Z,100166.59
2023-05-15T06:52:47.111Z,100153.00
2023-05-15T06:55:49.848Z,100152.28
2023-05-15T06:58:52.188Z,100159.84
2023-05-15T07:01:56.157Z,100150.06
2023-05-15T07:04:58.899Z,100146.59
2023-05-15T07:08:01.714Z,100155.97
2023-05-15T07:11:04.538Z,100154.84
2023-05-15T07:14:07.290Z,100156.78
2023-05-15T07:17:10.097Z,100156.16
2023-05-15T07:20:12.947Z,100158.25
2023-05-15T07:23:15.376Z,100159.19
2023-05-15T07:26:28.666Z,100164.38
2023-05-15T07:29:37.008Z,100166.41
2023-05-15T07:32:39.781Z,100169.63
2023-05-15T07:35:42.599Z,100158.03
2023-05-15T07:38:45.391Z,100156.13
2023-05-15T07:41:48.185Z,100149.03
2023-05-15T07:44:51.100Z,100145.19
2023-05-15T07:47:53.522Z,100153.22
2023-05-15T07:50:57.345Z,100159.31
2023-05-15T07:54:00.938Z,100151.00
2023-05-15T07:57:03.792Z,100158.09
2023-05-15T08:00:13.228Z,100151.81
2023-05-15T08:06:19.522Z,100141.44
2023-05-15T08:09:22.179Z,100140.66
2023-05-15T08:12:24.665Z,100124.47
2023-05-15T08:15:27.558Z,100121.84
2023-05-15T08:18:30.104Z,100117.94
2023-05-15T08:21:32.860Z,100121.47
2023-05-15T08:24:35.419Z,100120.31
2023-05-15T08:27:38.239Z,100118.59
2023-05-15T08:30:40.761Z,100098.06
2023-05-15T08:33:43.544Z,100105.88
2023-05-15T08:36:48.766Z,100092.50
2023-05-15T08:39:51.463Z,100091.47
2023-05-15T08:42:55.785Z,100098.06
2023-05-15T08:45:58.749Z,100097.06
2023-05-15T08:49:05.550Z,100100.03
2023-05-15T08:52:08.884Z,100089.69
2023-05-15T08:55:11.893Z,100080.56
2023-05-15T08:58:14.608Z,100082.06
2023-05-15T09:01:17.223Z,100078.47
2023-05-15T09:04:20.028Z,100075.66
2023-05-15T09:07:23.373Z,100075.59
2023-05-15T09:10:26.355Z,100073.84
2023-05-15T09:13:28.849Z,100075.34
2023-05-15T09:16:31.736Z,100083.47
2023-05-15T09:19:40.202Z,100095.72
2023-05-15T09:22:42.831Z,100093.94
2023-05-15T09:25:45.299Z,100108.63
2023-05-15T09:28:49.325Z,100097.25
2023-05-15T09:31:52.318Z,100098.28
2023-05-15T09:34:54.986Z,100099.06
2023-05-15T09:38:01.178Z,100076.13
2023-05-15T09:41:08.237Z,100077.97
2023-05-15T09:44:21.448Z,100075.44
2023-05-15T09:47:24.717Z,100070.00
2023-05-15T09:50:34.883Z,100072.47
2023-05-15T09:53:38.961Z,100066.19
2023-05-15T09:56:43.464Z,100062.56
2023-05-15T09:59:47.965Z,100057.16
2023-05-15T10:02:50.423Z,100056.44
2023-05-15T10:06:01.196Z,100062.00
2023-05-15T10:09:04.292Z,100050.13
2023-05-15T10:12:08.724Z,100055.97
2023-05-15T10:15:11.968Z,100042.56
2023-05-15T10:18:15.152Z,100050.41
2023-05-15T10:21:18.586Z,100048.63
2023-05-15T10:24:21.684Z,100050.03
2023-05-15T10:27:24.333Z,100052.13
2023-05-15T10:30:27.332Z,100048.66
2023-05-15T10:33:30.793Z,100044.16
2023-05-15T10:36:34.666Z,100043.38
2023-05-15T10:39:38.549Z,100041.69
2023-05-15T10:42:43.458Z,100041.50
2023-05-15T10:45:46.442Z,100047.44
2023-05-15T10:48:49.382Z,100052.91
2023-05-15T10:51:53.001Z,100050.16
2023-05-15T10:54:57.059Z,100044.16
2023-05-15T10:57:59.914Z,100030.88
2023-05-15T11:01:02.630Z,100031.47
2023-05-15T11:04:12.446Z,100033.22
2023-05-15T11:07:16.871Z,100025.75
2023-05-15T11:10:30.860Z,100022.97
2023-05-15T11:14:10.423Z,100021.50
2023-05-15T11:17:15.670Z,100016.44
2023-05-15T11:20:18.591Z,100025.63
2023-05-15T11:23:23.396Z,100021.31
2023-05-15T11:26:35.142Z,100020.56
2023-05-15T11:29:37.451Z,100019.69
2023-05-15T11:32:50.482Z,100019.03
2023-05-15T11:36:00.769Z,100010.94
2023-05-15T11:39:10.670Z,100011.84
2023-05-15T11:42:13.778Z,100009.47
2023-05-15T11:45:16.550Z,99995.34
2023-05-15T11:48:19.963Z,99998.03
2023-05-15T11:51:25.300Z,99999.56
2023-05-15T11:54:27.925Z,100000.88
2023-05-15T11:57:30.563Z,99992.84
2023-05-15T12:00:33.044Z,99992.69
2023-05-15T12:03:36.654Z,99991.78
2023-05-15T12:06:39.686Z,99990.78
2023-05-15T12:09:42.510Z,99982.84
2023-05-15T12:12:48.818Z,99978.81
2023-05-15T12:15:51.728Z,99977.22
2023-05-15T12:18:56.689Z,99976.00
2023-05-15T12:21:59.518Z,99974.75
2023-05-15T12:25:01.954Z,99977.78
2023-05-15T12:28:05.741Z,99965.22
2023-05-15T12:31:10.986Z,99974.66
2023-05-15T12:34:14.424Z,99970.03
2023-05-15T12:37:21.080Z,99974.00
2023-05-15T12:40:24.513Z,99966.84
2023-05-15T12:43:27.419Z,99960.63
2023-05-15T12:46:32.062Z,99959.03
2023-05-15T12:49:37.768Z,99949.94
2023-05-15T12:52:41.212Z,99940.94
2023-05-15T12:55:47.396Z,99928.28
2023-05-15T12:58:53.065Z,99935.72
2023-05-15T13:01:55.554Z,99919.00
2023-05-15T13:04:58.571Z,99924.31
2023-05-15T13:08:02.939Z,99918.78
2023-05-15T13:11:05.594Z,99928.00
2023-05-15T13:14:17.797Z,99921.75
2023-05-15T13:17:22.412Z,99913.03
2023-05-15T13:20:25.358Z,99910.97
2023-05-15T13:23:28.321Z,99911.25
2023-05-15T13:26:31.087Z,99908.59
2023-05-15T13:29:33.873Z,99897.75
2023-05-15T13:32:37.173Z,99896.44
2023-05-15T13:35:41.468Z,99906.13
2023-05-15T13:38:43.884Z,99902.75
2023-05-15T13:41:46.685Z,99900.16
2023-05-15T13:44:49.019Z,99893.69
2023-05-15T13:47:52.351Z,99897.81
2023-05-15T13:50:54.826Z,99892.75
2023-05-15T13:53:57.456Z,99889.97
2023-05-15T13:57:00.547Z,99879.47
2023-05-15T14:00:05.613Z,99887.34
2023-05-15T14:03:08.248Z,99873.94
2023-05-15T14:06:11.177Z,99868.59
2023-05-15T14:09:13.662Z,99862.16
2023-05-15T14:12:16.382Z,99866.63
2023-05-15T14:15:19.138Z,99864.66
2023-05-15T14:18:21.923Z,99878.28
2023-05-15T14:21:24.371Z,99877.22
2023-05-15T14:24:27.100Z,99878.94
2023-05-15T14:27:31.279Z,99874.25
2023-05-15T14:30:34.539Z,99869.47
2023-05-15T14:33:37.001Z,99859.53
2023-05-15T14:36:39.708Z,99858.81
2023-05-15T14:39:42.559Z,99854.50
2023-05-15T14:42:45.187Z,99844.81
2023-05-15T14:45:47.619Z,99835.53
2023-05-15T14:48:50.376Z,99841.75
2023-05-15T14:51:52.930Z,99860.66
2023-05-15T14:55:07.798Z,99854.94
2023-05-15T14:58:11.977Z,99849.34
2023-05-15T15:01:15.581Z,99849.44
2023-05-15T15:04:18.059Z,99846.63
2023-05-15T15:07:21.167Z,99843.38
2023-05-15T15:10:23.835Z,99845.06
2023-05-15T15:13:27.532Z,99843.16
2023-05-15T15:16:30.102Z,99850.06
2023-05-15T15:19:34.022Z,99854.94
2023-05-15T15:22:36.432Z,99857.69
2023-05-15T15:25:39.212Z,99865.53
2023-05-15T15:28:41.796Z,99854.00
2023-05-15T15:31:45.041Z,99855.66
2023-05-15T15:34:47.489Z,99841.38
2023-05-15T15:37:50.616Z,99834.88
2023-05-15T15:40:53.148Z,99835.47
2023-05-15T15:43:56.220Z,99824.72
2023-05-15T15:46:58.880Z,99828.94
2023-05-15T15:50:01.729Z,99828.53
2023-05-15T15:53:04.134Z,99816.56
2023-05-15T15:56:07.700Z,99820.94
2023-05-15T15:59:10.122Z,99812.41
2023-05-15T16:02:13.759Z,99809.69
2023-05-15T16:05:16.517Z,99803.31
2023-05-15T16:08:19.604Z,99804.09
2023-05-15T16:11:22.421Z,99804.97
2023-05-15T16:14:27.002Z,99800.72
2023-05-15T16:17:29.505Z,99803.28
2023-05-15T16:20:34.313Z,99805.88
2023-05-15T16:23:39.724Z,99802.44
2023-05-15T16:26:42.554Z,99801.75
2023-05-15T16:29:46.183Z,99807.63
2023-05-15T16:32:49.079Z,99820.34
2023-05-15T16:35:52.589Z,99817.31
2023-05-15T16:38:55.689Z,99821.44
2023-05-15T16:41:58.234Z,99817.81
2023-05-15T16:45:01.191Z,99804.72
2023-05-15T16:48:04.473Z,99793.16
2023-05-15T16:51:07.200Z,99789.13
2023-05-15T16:54:11.025Z,99796.06
2023-05-15T16:57:14.055Z,99785.78
2023-05-15T17:00:17.224Z,99793.47
2023-05-15T17:03:20.627Z,99800.00
2023-05-15T17:06:23.014Z,99795.94
2023-05-15T17:09:25.881Z,99798.31
2023-05-15T17:12:28.494Z,99795.91
2023-05-15T17:15:31.233Z,99794.25
2023-05-15T17:18:33.964Z,99806.81
2023-05-15T17:21:37.834Z,99806.41
2023-05-15T17:24:50.738Z,99809.94
2023-05-15T17:27:54.446Z,99807.72
2023-05-15T17:30:56.918Z,99799.59
2023-05-15T17:34:00.568Z,99797.69
2023-05-15T17:37:03.032Z,99787.94
2023-05-15T17:40:07.187Z,99798.78
2023-05-15T17:43:10.454Z,99807.00
2023-05-15T17:46:13.414Z,99820.19
2023-05-15T17:49:16.193Z,99822.13
2023-05-15T17:52:18.930Z,99814.25
2023-05-15T17:55:21.784Z,99806.03
2023-05-15T17:58:24.780Z,99819.50
2023-05-15T18:01:27.234Z,99821.25
2023-05-15T18:04:31.046Z,99824.81
2023-05-15T18:07:33.459Z,99832.94
2023-05-15T18:10:36.255Z,99828.56
2023-05-15T18:13:38.587Z,99823.06
2023-05-15T18:16:41.805Z,99831.25
2023-05-15T18:19:45.120Z,99827.25
2023-05-15T18:22:48.021Z,99834.34
2023-05-15T18:25:51.427Z,99827.41
2023-05-15T18:28:54.502Z,99831.84
2023-05-15T18:31:57.316Z,99836.22
2023-05-15T18:35:01.658Z,99825.47
2023-05-15T18:38:05.929Z,99835.44
2023-05-15T18:41:09.235Z,99833.47
2023-05-15T18:44:15.384Z,99837.00
2023-05-15T18:47:19.268Z,99832.06
2023-05-15T18:50:24.567Z,99832.91
2023-05-15T18:53:27.430Z,99827.34
2023-05-15T18:56:30.442Z,99838.28
2023-05-15T18:59:33.398Z,99829.31
2023-05-15T19:02:40.438Z,99846.31
2023-05-15T19:05:43.850Z,99832.16
2023-05-15T19:08:47.820Z,99832.31
2023-05-15T19:11:52.981Z,99838.47
2023-05-15T19:14:55.677Z,99843.00
2023-05-15T19:17:58.597Z,99840.50
2023-05-15T19:21:01.276Z,99847.84
2023-05-15T19:24:05.297Z,99840.84
2023-05-15T19:27:07.796Z,99839.28
2023-05-15T19:30:11.134Z,99843.88
2023-05-15T19:33:15.846Z,99855.44
2023-05-15T19:36:19.032Z,99851.91
2023-05-15T19:39:21.953Z,99847.59
2023-05-15T19:42:24.925Z,99848.63
2023-05-15T19:45:29.688Z,99845.94
2023-05-15T19:48:32.787Z,99855.84
2023-05-15T19:51:35.484Z,99855.22
2023-05-15T19:54:38.441Z,99854.44
2023-05-15T19:57:42.894Z,99852.81
2023-05-15T20:00:46.586Z,99860.91
2023-05-15T20:03:49.625Z,99855.50
2023-05-15T20:06:55.395Z,99864.59
2023-05-15T20:10:03.667Z,99866.25
2023-05-15T20:13:06.949Z,99863.66
2023-05-15T20:16:12.937Z,99866.69
2023-05-15T20:19:17.192Z,99870.94
2023-05-15T20:22:20.232Z,99871.47
2023-05-15T20:25:24.337Z,99868.72
2023-05-15T20:28:28.989Z,99876.66
2023-05-15T20:31:32.121Z,99874.19
2023-05-15T20:34:37.013Z,99871.50
2023-05-15T20:37:43.125Z,99869.91
2023-05-15T20:40:47.009Z,99873.56
2023-05-15T20:43:54.053Z,99874.38
2023-05-15T20:46:59.859Z,99856.47
2023-05-15T20:50:03.011Z,99868.97
2023-05-15T20:53:05.887Z,99873.31
2023-05-15T20:56:09.484Z,99866.19
2023-05-15T20:59:12.957Z,99872.56
2023-05-15T21:02:16.233Z,99873.31
2023-05-15T21:05:18.898Z,99865.50
2023-05-15T21:08:22.114Z,99872.44
2023-05-15T21:11:24.559Z,99869.13
2023-05-15T21:14:27.348Z,99862.81
2023-05-15T21:17:30.298Z,99865.69
2023-05-15T21:20:35.012Z,99852.41
2023-05-15T21:23:37.949Z,99858.00
2023-05-15T21:26:40.761Z,99866.09
2023-05-15T21:29:43.103Z,99852.69
2023-05-15T21:32:45.974Z,99856.50
2023-05-15T21:35:49.175Z,99858.16
2023-05-15T21:38:51.912Z,99859.09
2023-05-15T21:41:54.322Z,99850.28
2023-05-15T21:44:57.281Z,99857.53
2023-05-15T21:48:00.069Z,99855.88
2023-05-15T21:51:03.827Z,99855.00
2023-05-15T21:54:06.488Z,99852.22
2023-05-15T21:57:09.328Z,99854.19
2023-05-15T22:00:14.135Z,99848.75
2023-05-15T22:03:18.319Z,99862.28
2023-05-15T22:06:20.862Z,99864.31
2023-05-15T22:09:23.619Z,99867.94
2023-05-15T22:12:27.911Z,99881.09
2023-05-15T22:15:30.731Z,99863.53
2023-05-15T22:18:35.146Z,99870.38
2023-05-15T22:21:38.040Z,99874.81
2023-05-15T22:24:40.480Z,99865.31
2023-05-15T22:27:43.289Z,99874.19
2023-05-15T22:30:45.833Z,99877.06
2023-05-15T22:33:48.881Z,99884.13
2023-05-15T22:40:00.448Z,99879.84
2023-05-15T22:43:02.954Z,99894.00
2023-05-15T22:46:07.360Z,99894.00
2023-05-15T22:49:10.188Z,99887.78
2023-05-15T22:52:13.813Z,99892.13
2023-05-15T22:55:17.610Z,99882.50
2023-05-15T22:58:20.773Z,99886.06
2023-05-15T23:01:23.396Z,99889.50
2023-05-15T23:04:26.410Z,99893.19
2023-05-15T23:07:28.960Z,99895.84
2023-05-15T23:10:31.653Z,99894.63
2023-05-15T23:13:34.148Z,99885.75
2023-05-15T23:16:37.021Z,99888.34
2023-05-15T23:19:40.320Z,99883.06
2023-05-15T23:22:43.205Z,99887.41
2023-05-15T23:25:45.820Z,99886.84
2023-05-15T23:28:48.619Z,99885.09
2023-05-15T23:31:51.103Z,99886.91
2023-05-15T23:34:54.925Z,99881.38
2023-05-15T23:37:57.390Z,99883.13
2023-05-15T23:41:00.151Z,99883.13
2023-05-15T23:44:02.593Z,99876.19
2023-05-15T23:47:05.731Z,99889.56
2023-05-15T23:50:08.724Z,99879.75
2023-05-15T23:53:11.485Z,99874.38
2023-05-15T23:56:13.921Z,99878.03
2023-05-15T23:59:18.787Z,99880.69
